Terminal Aerodrome Forecast
Issued by NWS Dodge City, KS

Home | Current Version | Previous Version | Graphics & Text | Print | Product List | Glossary Off
Versions: 1 2 3 4 5 6 7 8 9 10 11 12 13 14 15 16 17 18 19 20 21 22 23 24 25 26 27 28 29 30 31 32 33 34 35 36 37 38 39

000
FTUS43 KDDC 032320
TAFDDC
TAF
KDDC 032320Z 0400/0424 VRB05KT 5SM -RA BR OVC004
     FM040400 VRB03KT 1 1/2SM BR VCSH OVC003
     FM040800 29006KT P6SM SCT008
     FM041300 31010KT P6SM FEW150=

USA.gov is the U.S. government's official web portal to all federal, state and local government web resources and services.